createdAt,value
2019-05-07T00:01:52.547Z,4.73
2019-05-07T00:06:57.883Z,4.87
2019-05-07T00:12:05.142Z,5.17
2019-05-07T00:17:10.419Z,4.63
2019-05-07T00:22:15.681Z,5.10
2019-05-07T00:27:22.629Z,4.67
2019-05-07T00:32:28.572Z,4.90
2019-05-07T00:37:43.137Z,4.60
2019-05-07T00:43:05.433Z,5.00
2019-05-07T00:48:12.603Z,4.50
2019-05-07T00:53:17.488Z,4.63
2019-05-07T00:58:26.458Z,4.20
2019-05-07T01:03:29.431Z,3.93
2019-05-07T01:08:34.645Z,4.27
2019-05-07T01:13:40.116Z,4.60
2019-05-07T01:18:45.463Z,4.30
2019-05-07T01:23:52.317Z,4.20
2019-05-07T01:29:02.867Z,4.03
2019-05-07T01:34:09.635Z,3.87
2019-05-07T01:39:14.891Z,3.93
2019-05-07T01:44:22.161Z,3.77
2019-05-07T01:49:27.256Z,3.67
2019-05-07T01:54:33.202Z,3.13
2019-05-07T01:59:38.720Z,3.20
2019-05-07T02:04:45.487Z,3.43
2019-05-07T02:10:04.460Z,3.83
2019-05-07T02:15:11.941Z,3.40
2019-05-07T02:20:17.829Z,3.67
2019-05-07T02:25:23.084Z,3.27
2019-05-07T02:30:29.686Z,3.17
2019-05-07T02:35:35.008Z,3.37
2019-05-07T02:40:43.317Z,2.97
2019-05-07T02:45:56.328Z,3.07
2019-05-07T02:51:06.073Z,3.10
2019-05-07T02:56:13.042Z,3.00
2019-05-07T03:01:18.492Z,2.97
2019-05-07T03:06:23.698Z,3.10
2019-05-07T03:11:28.988Z,3.57
2019-05-07T03:16:43.196Z,3.47
2019-05-07T03:21:53.935Z,3.70
2019-05-07T03:27:03.178Z,3.23
2019-05-07T03:32:28.557Z,3.70
2019-05-07T03:37:36.454Z,4.00
2019-05-07T03:42:44.008Z,3.40
2019-05-07T03:47:53.917Z,3.50
2019-05-07T03:52:57.475Z,3.90
2019-05-07T03:58:03.284Z,3.73
2019-05-07T04:03:08.663Z,3.70
2019-05-07T04:08:14.922Z,3.87
2019-05-07T04:13:23.533Z,3.63
2019-05-07T04:18:26.946Z,3.80
2019-05-07T04:23:34.288Z,3.83
2019-05-07T04:28:57.262Z,3.27
2019-05-07T04:34:04.309Z,3.80
2019-05-07T04:39:09.655Z,3.43
2019-05-07T04:44:15.019Z,4.10
2019-05-07T04:49:23.588Z,3.67
2019-05-07T04:54:27.267Z,3.63
2019-05-07T04:59:33.033Z,3.30
2019-05-07T05:04:38.706Z,3.83
2019-05-07T05:09:44.272Z,3.47
2019-05-07T05:14:49.382Z,3.73
2019-05-07T05:19:56.150Z,4.17
2019-05-07T05:25:14.928Z,3.10
2019-05-07T05:30:32.711Z,3.00
2019-05-07T05:35:38.619Z,3.00
2019-05-07T05:40:44.821Z,2.63
2019-05-07T05:45:53.038Z,2.43
2019-05-07T05:50:59.755Z,2.53
2019-05-07T05:56:12.812Z,2.63
2019-05-07T06:01:36.243Z,2.63
2019-05-07T06:06:46.201Z,2.30
2019-05-07T06:11:53.094Z,2.03
2019-05-07T06:17:16.167Z,1.80
2019-05-07T06:22:38.225Z,2.40
2019-05-07T06:27:43.466Z,2.23
2019-05-07T06:32:48.695Z,2.20
2019-05-07T06:37:53.912Z,2.17
2019-05-07T06:43:03.108Z,2.00
2019-05-07T06:48:07.994Z,1.90
2019-05-07T06:53:13.277Z,1.80
2019-05-07T06:58:18.617Z,1.90
2019-05-07T07:03:28.275Z,2.17
2019-05-07T07:08:35.162Z,1.80
2019-05-07T07:13:42.551Z,1.73
2019-05-07T07:18:52.069Z,1.70
2019-05-07T07:23:54.526Z,1.83
2019-05-07T07:29:01.948Z,1.50
2019-05-07T07:34:07.784Z,1.55
2019-05-07T07:39:12.938Z,1.63
2019-05-07T07:44:18.234Z,1.70
2019-05-07T07:49:23.869Z,2.30
2019-05-07T07:54:29.316Z,1.53
2019-05-07T07:59:39.142Z,1.53
2019-05-07T08:04:44.747Z,1.93
2019-05-07T08:09:51.898Z,1.70
2019-05-07T08:15:13.557Z,1.70
2019-05-07T08:20:07.296Z,1.70
2019-05-07T08:25:14.062Z,1.70
2019-05-07T08:30:22.414Z,1.50
2019-05-07T08:35:37.746Z,1.80
2019-05-07T08:40:43.196Z,1.60
2019-05-07T08:45:52.728Z,1.30
2019-05-07T08:50:58.176Z,1.45
2019-05-07T08:56:03.544Z,1.40
2019-05-07T09:01:08.903Z,1.60
2019-05-07T09:06:14.970Z,1.50
2019-05-07T09:11:22.939Z,1.43
2019-05-07T09:16:27.621Z,1.53
2019-05-07T09:21:35.255Z,1.63
2019-05-07T09:26:52.381Z,1.60
2019-05-07T09:32:15.244Z,1.73
2019-05-07T09:37:28.122Z,1.40
2019-05-07T09:42:33.630Z,1.50
2019-05-07T09:47:39.097Z,1.67
2019-05-07T09:52:44.566Z,2.20
2019-05-07T09:57:49.772Z,1.73
2019-05-07T10:02:56.745Z,2.27
2019-05-07T10:08:02.272Z,1.83
2019-05-07T10:13:25.861Z,2.40
2019-05-07T10:18:32.130Z,2.07
2019-05-07T10:23:38.006Z,1.43
2019-05-07T10:28:43.989Z,1.47
2019-05-07T10:33:49.410Z,1.37
2019-05-07T10:38:54.977Z,1.40
2019-05-07T10:44:02.422Z,1.70
2019-05-07T10:49:12.294Z,1.50
2019-05-07T10:54:18.869Z,1.53
2019-05-07T10:59:24.159Z,1.60
2019-05-07T11:04:40.304Z,1.20
2019-05-07T11:09:36.784Z,2.00
2019-05-07T11:14:42.041Z,1.90
2019-05-07T11:19:47.291Z,1.93
2019-05-07T11:24:52.503Z,2.00
2019-05-07T11:29:57.737Z,1.57
2019-05-07T11:35:05.446Z,1.90
2019-05-07T11:40:12.966Z,1.83
2019-05-07T11:45:19.722Z,1.87
2019-05-07T11:50:26.488Z,1.60
2019-05-07T11:55:31.687Z,1.77
2019-05-07T12:00:44.491Z,2.20
2019-05-07T12:05:49.790Z,2.10
2019-05-07T12:10:55.337Z,2.17
2019-05-07T12:16:02.687Z,1.83
2019-05-07T12:21:18.353Z,1.90
2019-05-07T12:26:15.096Z,2.00
2019-05-07T12:31:22.473Z,1.77
2019-05-07T12:36:28.178Z,1.80
2019-05-07T12:41:34.374Z,1.70
2019-05-07T12:46:42.112Z,1.60
2019-05-07T12:51:57.383Z,1.90
2019-05-07T12:57:02.693Z,1.83
2019-05-07T13:02:33.418Z,1.90
2019-05-07T13:07:24.319Z,1.70
2019-05-07T13:12:29.634Z,1.83
2019-05-07T13:17:34.861Z,2.17
2019-05-07T13:22:40.234Z,1.27
2019-05-07T13:27:46.134Z,1.50
2019-05-07T13:32:52.590Z,1.20
2019-05-07T13:38:05.284Z,1.40
2019-05-07T13:43:12.265Z,1.50
2019-05-07T13:48:22.361Z,1.50
2019-05-07T13:53:27.792Z,1.70
2019-05-07T13:58:33.105Z,1.73
2019-05-07T14:03:38.511Z,1.60
2019-05-07T14:08:45.588Z,1.40
2019-05-07T14:13:52.264Z,1.23
2019-05-07T14:18:58.206Z,1.40
2019-05-07T14:24:03.817Z,1.37
2019-05-07T14:29:09.207Z,1.43
2019-05-07T14:34:16.309Z,1.53
2019-05-07T14:39:22.026Z,1.07
2019-05-07T14:44:31.763Z,1.33
2019-05-07T14:49:37.346Z,1.20
2019-05-07T14:54:43.140Z,1.30
2019-05-07T14:59:48.496Z,1.40
2019-05-07T15:04:53.966Z,1.90
2019-05-07T15:09:59.367Z,2.00
2019-05-07T15:15:09.632Z,1.57
2019-05-07T15:20:15.671Z,3.53
2019-05-07T15:25:22.689Z,1.50
2019-05-07T15:30:32.474Z,1.63
2019-05-07T15:35:38.503Z,12.17
2019-05-07T15:40:43.910Z,5.47
2019-05-07T15:45:49.260Z,1.83
2019-05-07T15:50:54.614Z,1.50
2019-05-07T15:56:01.788Z,1.60
2019-05-07T16:01:08.461Z,2.67
2019-05-07T16:06:13.920Z,3.60
2019-05-07T16:11:23.226Z,6.40
2019-05-07T16:16:28.766Z,1.60
2019-05-07T16:21:33.868Z,16.97
2019-05-07T16:26:39.124Z,3.13
2019-05-07T16:31:44.827Z,1.67
2019-05-07T16:36:50.180Z,2.07
2019-05-07T16:41:55.479Z,5.67
2019-05-07T16:47:02.678Z,1.57
2019-05-07T16:52:07.715Z,1.70
2019-05-07T16:57:24.186Z,1.70
2019-05-07T17:02:32.126Z,1.80
2019-05-07T17:07:49.190Z,1.90
2019-05-07T17:12:54.485Z,2.13
2019-05-07T17:17:59.769Z,5.90
2019-05-07T17:23:05.480Z,4.37
2019-05-07T17:28:12.632Z,2.00
2019-05-07T17:33:18.131Z,1.53
2019-05-07T17:38:23.549Z,1.90
2019-05-07T17:43:28.950Z,2.00
2019-05-07T17:48:34.392Z,2.20
2019-05-07T17:53:40.056Z,2.10
2019-05-07T17:58:45.723Z,2.23
2019-05-07T18:03:52.312Z,2.10
2019-05-07T18:08:57.765Z,2.37
2019-05-07T18:14:02.944Z,2.00
2019-05-07T18:19:08.401Z,2.00
2019-05-07T18:24:16.845Z,2.20
2019-05-07T18:29:22.599Z,5.63
2019-05-07T18:34:28.448Z,5.03
2019-05-07T18:39:33.937Z,12.70
2019-05-07T18:44:41.594Z,6.23
2019-05-07T18:49:46.586Z,4.77
2019-05-07T18:54:52.117Z,8.03
2019-05-07T18:59:57.863Z,5.63
2019-05-07T19:05:03.332Z,13.97
2019-05-07T19:10:09.128Z,38.70
2019-05-07T19:15:15.098Z,22.63
2019-05-07T19:20:21.811Z,28.53
2019-05-07T19:25:27.469Z,6.83
2019-05-07T19:30:32.778Z,7.83
2019-05-07T19:35:41.857Z,15.70
2019-05-07T19:40:47.259Z,9.80
2019-05-07T19:45:52.723Z,27.47
2019-05-07T19:50:57.879Z,11.40
2019-05-07T19:56:05.064Z,10.93
2019-05-07T20:01:12.221Z,10.70
2019-05-07T20:06:18.219Z,12.07
2019-05-07T20:11:25.029Z,12.27
2019-05-07T20:16:32.400Z,11.17
2019-05-07T20:21:37.123Z,10.37
2019-05-07T20:26:43.207Z,10.17
2019-05-07T20:31:50.212Z,9.50
2019-05-07T20:36:55.581Z,9.80
2019-05-07T20:42:02.962Z,9.77
2019-05-07T20:47:07.813Z,10.37
2019-05-07T20:52:13.205Z,10.07
2019-05-07T20:57:22.402Z,10.40
2019-05-07T21:02:41.787Z,10.83
2019-05-07T21:07:34.743Z,11.20
2019-05-07T21:12:42.262Z,11.33
2019-05-07T21:17:47.023Z,10.00
2019-05-07T21:22:52.106Z,9.90
2019-05-07T21:27:57.454Z,9.47
2019-05-07T21:33:02.854Z,10.13
2019-05-07T21:38:08.235Z,8.77
2019-05-07T21:43:14.187Z,9.43
2019-05-07T21:48:22.127Z,8.80
2019-05-07T21:53:37.797Z,8.20
2019-05-07T21:58:53.868Z,8.13
2019-05-07T22:03:58.986Z,8.40
2019-05-07T22:09:07.205Z,9.87
2019-05-07T22:14:13.133Z,8.73
2019-05-07T22:19:18.609Z,8.30
2019-05-07T22:24:23.851Z,9.13
2019-05-07T22:29:29.012Z,9.03
2019-05-07T22:34:42.353Z,8.70
2019-05-07T22:39:49.575Z,8.20
2019-05-07T22:44:59.127Z,8.80
2019-05-07T22:50:05.267Z,7.70
2019-05-07T22:55:13.924Z,8.73
2019-05-07T23:00:22.715Z,8.30
2019-05-07T23:05:28.210Z,8.67
2019-05-07T23:10:33.758Z,7.17
2019-05-07T23:15:39.274Z,8.50
2019-05-07T23:20:45.242Z,7.93
2019-05-07T23:25:52.375Z,7.83
2019-05-07T23:30:57.698Z,7.77
2019-05-07T23:36:03.294Z,7.87
2019-05-07T23:41:12.769Z,7.47
2019-05-07T23:46:18.281Z,7.43
2019-05-07T23:51:23.789Z,7.37
2019-05-07T23:56:29.121Z,7.33
